Time;durP1;ratioP1;P1;durP2;ratioP2;P2;SDS_P1;SDS_P2;PMS_P1;PMS_P2;Temp;Humidity;BMP_temperature;BMP_pressure;BME280_temperature;BME280_humidity;BME280_pressure;Samples;Min_cycle;Max_cycle;Signal;HPM_P1;HPM_P2
2021/01/29 01:19:52;;;;;;;7.60;4.70;;;1.80;99.90;;;;;;6235346;23;20265;-87
2021/01/29 01:22:20;;;;;;;5.27;4.20;;;1.60;99.90;;;;;;6238935;23;20918;-88
2021/01/29 01:49:48;;;;;;;9.37;4.77;;;1.20;99.90;;;;;;5959836;23;20434;-88
2021/01/29 01:52:42;;;;;;;4.83;4.43;;;1.20;99.90;;;;;;6046708;23;20416;-88
2021/01/29 02:08:19;;;;;;;10.87;4.90;;;1.20;99.90;;;;;;5912038;23;20412;-88
2021/01/29 02:11:17;;;;;;;6.87;5.70;;;1.20;99.90;;;;;;6186981;22;20424;-87
2021/01/29 02:14:25;;;;;;;6.33;5.23;;;1.20;99.90;;;;;;6152078;23;20428;-87
2021/01/29 02:17:21;;;;;;;6.17;4.77;;;1.10;99.90;;;;;;6224944;23;20426;-87
2021/01/29 02:21:04;;;;;;;5.90;5.33;;;1.10;99.90;;;;;;6200887;23;20425;-87
2021/01/29 02:24:44;;;;;;;9.97;5.80;;;1.10;99.90;;;;;;6256437;23;20502;-87
2021/01/29 02:27:45;;;;;;;8.20;4.97;;;1.10;99.90;;;;;;6251057;23;20406;-88
2021/01/29 02:46:53;;;;;;;7.50;6.00;;;1.00;99.90;;;;;;5980942;23;20456;-88
2021/01/29 02:49:58;;;;;;;8.20;6.70;;;1.00;99.90;;;;;;6089609;23;20475;-87
2021/01/29 02:53:00;;;;;;;9.80;7.37;;;1.00;99.90;;;;;;6080240;23;20407;-88
2021/01/29 02:55:54;;;;;;;8.30;6.47;;;1.00;99.90;;;;;;6072048;23;20426;-88
2021/01/29 02:59:01;;;;;;;;;;;;;;;;;;;;;
2021/01/29 03:02:10;;;;;;;9.77;7.43;;;0.90;99.90;;;;;;6170739;23;20400;-88
2021/01/29 03:05:21;;;;;;;7.83;7.03;;;0.90;99.90;;;;;;6168130;23;20879;-88
2021/01/29 03:08:57;;;;;;;9.03;7.23;;;0.90;99.90;;;;;;6180292;23;20399;-87
2021/01/29 03:22:59;;;;;;;9.50;8.60;;;0.80;99.90;;;;;;5833947;24;21018;-88
2021/01/29 03:25:57;;;;;;;9.73;8.23;;;0.80;99.90;;;;;;6004292;24;20507;-88
2021/01/29 03:28:53;;;;;;;10.10;9.13;;;0.80;99.90;;;;;;6179462;23;20512;-88
2021/01/29 03:31:45;;;;;;;12.03;10.10;;;0.80;99.90;;;;;;6180365;23;20395;-88
2021/01/29 03:34:37;;;;;;;11.70;8.73;;;0.80;99.90;;;;;;6179084;23;20443;-88
2021/01/29 03:37:32;;;;;;;11.10;9.93;;;0.80;99.90;;;;;;6179587;23;20440;-88
2021/01/29 03:40:19;;;;;;;12.47;9.17;;;0.80;99.90;;;;;;6179595;23;20452;-88
2021/01/29 03:43:16;;;;;;;10.60;9.40;;;0.80;99.90;;;;;;6179648;23;20399;-88
2021/01/29 03:46:21;;;;;;;9.80;8.90;;;0.80;99.90;;;;;;6130134;23;20405;-88
2021/01/29 03:49:19;;;;;;;10.07;9.10;;;0.90;99.90;;;;;;6178715;23;20439;-88
2021/01/29 03:52:14;;;;;;;11.33;10.17;;;0.80;99.90;;;;;;6179552;23;20428;-88
2021/01/29 03:55:12;;;;;;;10.10;9.10;;;0.80;99.90;;;;;;6180284;23;20413;-88
2021/01/29 03:58:04;;;;;;;12.20;10.90;;;0.80;99.90;;;;;;6180047;23;20440;-88
2021/01/29 04:00:56;;;;;;;15.20;11.50;;;1.00;99.90;;;;;;6180896;23;20534;-88
2021/01/29 04:04:04;;;;;;;11.40;10.40;;;1.00;99.90;;;;;;6074724;23;20436;-88
2021/01/29 04:07:12;;;;;;;11.32;10.15;;;1.00;99.90;;;;;;6133342;23;20404;-88
2021/01/29 04:10:03;;;;;;;12.77;11.53;;;1.00;99.90;;;;;;6179303;23;20224;-88
2021/01/29 04:12:55;;;;;;;11.07;9.97;;;1.00;99.90;;;;;;6178604;23;20404;-87
2021/01/29 04:15:32;;;;;;;13.23;12.00;;;1.00;99.90;;;;;;6142929;23;20419;-87
2021/01/29 04:18:07;;;;;;;13.93;11.50;;;0.90;99.90;;;;;;6142876;23;20419;-87
2021/01/29 04:20:43;;;;;;;13.10;11.50;;;0.90;99.90;;;;;;6144036;23;20754;-87
2021/01/29 04:35:35;;;;;;;11.27;10.10;;;0.90;99.90;;;;;;5904515;24;20439;-87
2021/01/29 04:49:29;;;;;;;13.30;11.50;;;0.90;99.90;;;;;;5941520;23;20460;-88
2021/01/29 04:52:31;;;;;;;14.93;10.90;;;0.90;99.90;;;;;;6022421;23;20410;-88
2021/01/29 04:55:34;;;;;;;12.70;11.40;;;0.90;99.90;;;;;;6045688;23;20401;-87
2021/01/29 04:58:06;;;;;;;13.13;11.77;;;1.00;99.90;;;;;;6021243;23;20418;-87
2021/01/29 05:01:23;;;;;;;13.80;11.20;;;1.00;99.90;;;;;;6017042;23;20437;-87
2021/01/29 05:04:44;;;;;;;12.37;10.37;;;1.00;99.90;;;;;;6167325;23;20432;-88
2021/01/29 05:08:15;;;;;;;12.40;10.80;;;0.90;99.90;;;;;;6178207;23;20410;-87
2021/01/29 05:11:50;;;;;;;12.67;11.43;;;1.00;99.90;;;;;;6030617;23;20492;-88
2021/01/29 05:14:45;;;;;;;12.87;11.07;;;1.00;99.90;;;;;;6021223;23;20465;-88
2021/01/29 05:17:37;;;;;;;12.83;10.10;;;1.00;99.90;;;;;;6123057;23;20416;-87
2021/01/29 05:20:33;;;;;;;11.33;9.40;;;1.00;99.90;;;;;;6134137;23;20444;-87
2021/01/29 05:23:09;;;;;;;14.47;10.77;;;1.00;99.90;;;;;;6188601;23;20475;-88
2021/01/29 05:40:49;;;;;;;9.10;8.20;;;1.00;99.90;;;;;;5828054;23;20442;-88
2021/01/29 05:43:48;;;;;;;10.87;8.70;;;1.00;99.90;;;;;;5997917;23;20420;-88
2021/01/29 05:46:23;;;;;;;10.93;8.40;;;1.00;99.90;;;;;;5997059;23;20736;-88
2021/01/29 06:01:51;;;;;;;;;;;;;;;;;;;;;
2021/01/29 06:22:42;;;;;;;9.00;6.93;;;0.80;99.90;;;;;;5837627;24;20410;-88
2021/01/29 06:25:27;;;;;;;8.23;6.87;;;0.80;99.90;;;;;;5928870;24;20444;-88
2021/01/29 06:28:35;;;;;;;7.63;6.93;;;0.80;99.90;;;;;;5909618;24;20471;-88
2021/01/29 06:31:31;;;;;;;9.03;7.97;;;0.80;99.90;;;;;;5888872;24;20424;-88
2021/01/29 06:34:21;;;;;;;7.43;6.53;;;0.80;99.90;;;;;;5972182;23;20430;-88
2021/01/29 06:37:01;;;;;;;10.90;6.63;;;0.80;99.90;;;;;;5964151;24;20520;-88
2021/01/29 06:57:09;;;;;;;10.07;9.17;;;0.70;99.90;;;;;;5658143;25;20418;-87
2021/01/29 06:59:54;;;;;;;9.37;8.47;;;0.70;99.90;;;;;;5941813;24;20441;-88
2021/01/29 07:02:50;;;;;;;9.10;8.20;;;0.70;99.90;;;;;;6089818;23;20465;-87
2021/01/29 07:05:47;;;;;;;8.67;7.77;;;0.70;99.90;;;;;;6109339;23;20990;-88
2021/01/29 07:08:39;;;;;;;10.23;9.13;;;0.70;99.90;;;;;;6111449;23;20421;-87
2021/01/29 07:11:24;;;;;;;10.77;9.67;;;0.80;99.90;;;;;;6119067;23;20421;-88
2021/01/29 07:14:34;;;;;;;9.17;8.27;;;0.80;99.90;;;;;;6146848;23;20393;-88
2021/01/29 07:17:22;;;;;;;10.32;8.88;;;0.80;99.90;;;;;;6066317;23;20547;-88
2021/01/29 07:20:25;;;;;;;10.70;9.33;;;0.80;99.90;;;;;;6112668;23;20501;-88
2021/01/29 07:23:25;;;;;;;8.90;8.00;;;0.90;99.90;;;;;;6112039;23;20460;-88
2021/01/29 07:26:04;;;;;;;9.73;7.90;;;0.80;99.90;;;;;;6112489;23;20527;-87
2021/01/29 07:41:02;;;;;;;8.80;7.93;;;0.80;99.90;;;;;;5907364;24;20455;-87
2021/01/29 07:44:01;;;;;;;8.93;8.13;;;0.70;99.90;;;;;;6000254;23;20444;-86
2021/01/29 07:47:29;;;;;;;10.47;8.80;;;0.80;99.90;;;;;;6158699;23;20487;-88
2021/01/29 07:50:15;;;;;;;8.23;7.13;;;0.80;99.90;;;;;;6151953;23;20440;-86
2021/01/29 07:53:40;;;;;;;;;;;;;;;;;;;;;
2021/01/29 08:01:18;;;;;;;8.80;7.67;;;0.80;99.90;;;;;;6075944;23;20439;-86
2021/01/29 08:05:18;;;;;;;;;;;;;;;;;;;;;
2021/01/29 08:32:34;;;;;;;10.00;9.00;;;0.80;99.90;;;;;;5995099;23;20431;-86
2021/01/29 08:35:42;;;;;;;9.77;8.83;;;0.80;99.90;;;;;;6022224;23;20428;-85
2021/01/29 08:38:16;;;;;;;12.50;8.70;;;0.80;99.90;;;;;;6152176;23;20431;-85
2021/01/29 08:40:53;;;;;;;9.93;8.70;;;0.80;99.90;;;;;;6146159;23;20451;-85
2021/01/29 08:43:50;;;;;;;9.63;8.73;;;0.80;99.90;;;;;;6150611;23;20785;-85
2021/01/29 08:46:42;;;;;;;11.20;9.30;;;0.80;99.90;;;;;;6147030;23;20511;-85
2021/01/29 08:49:37;;;;;;;11.00;9.90;;;0.80;99.90;;;;;;6150561;23;20447;-86
2021/01/29 08:53:09;;;;;;;10.37;9.20;;;0.90;99.90;;;;;;6150929;23;20416;-86
2021/01/29 08:55:58;;;;;;;9.60;8.60;;;0.90;99.90;;;;;;6155629;23;20430;-85
2021/01/29 08:58:46;;;;;;;;;;;;;;;;;;;;;
2021/01/29 10:16:22;;;;;;;11.53;10.53;;;1.10;99.90;;;;;;6005580;23;20469;-87
2021/01/29 10:32:52;;;;;;;11.67;10.50;;;1.10;99.90;;;;;;5917716;23;20413;-88
2021/01/29 10:50:11;;;;;;;12.77;11.47;;;1.10;99.90;;;;;;6027282;23;20483;-88
2021/01/29 10:52:48;;;;;;;12.67;11.47;;;1.10;99.90;;;;;;6040759;23;20506;-88
2021/01/29 10:55:22;;;;;;;16.07;14.57;;;1.20;99.90;;;;;;6171168;23;20426;-89
2021/01/29 10:58:03;;;;;;;13.43;12.03;;;1.10;99.90;;;;;;6173821;23;20479;-88
2021/01/29 11:00:37;;;;;;;14.17;12.13;;;1.20;99.90;;;;;;6174389;23;20439;-88
2021/01/29 12:01:14;;;;;;;13.50;12.20;;;1.20;99.90;;;;;;5857380;24;20934;-89
2021/01/29 12:03:48;;;;;;;15.20;13.80;;;1.20;99.90;;;;;;5949427;23;20425;-89
2021/01/29 12:06:21;;;;;;;14.13;12.73;;;1.20;99.90;;;;;;6080548;23;20842;-89
2021/01/29 12:09:04;;;;;;;15.17;13.83;;;1.20;99.90;;;;;;6056709;23;20438;-89
2021/01/29 12:11:37;;;;;;;15.37;13.93;;;1.20;99.90;;;;;;6080199;23;20416;-88
2021/01/29 12:14:14;;;;;;;15.20;13.73;;;1.30;99.90;;;;;;6055699;23;20432;-89
2021/01/29 12:16:46;;;;;;;15.53;13.93;;;1.20;99.90;;;;;;6055940;23;20502;-88
2021/01/29 12:19:26;;;;;;;16.03;14.43;;;1.20;99.90;;;;;;6057270;23;20450;-89
2021/01/29 12:22:06;;;;;;;13.23;11.93;;;1.30;99.90;;;;;;6055963;23;20454;-89
2021/01/29 12:24:42;;;;;;;15.57;12.77;;;1.30;99.90;;;;;;6055782;23;20406;-89
2021/01/29 12:27:13;;;;;;;15.30;13.70;;;1.30;99.90;;;;;;6057050;23;20414;-89
2021/01/29 12:29:49;;;;;;;13.07;11.87;;;1.30;99.90;;;;;;6054908;23;20830;-89
2021/01/29 12:32:54;;;;;;;15.03;13.50;;;1.30;99.90;;;;;;6075965;23;20415;-89
2021/01/29 12:35:27;;;;;;;17.88;15.68;;;1.20;99.90;;;;;;6048554;23;20417;-89
2021/01/29 12:38:09;;;;;;;14.80;13.40;;;1.40;99.90;;;;;;6049384;23;20174;-89
2021/01/29 12:40:41;;;;;;;14.90;13.50;;;1.40;99.90;;;;;;6073104;23;20457;-89
2021/01/29 12:43:23;;;;;;;14.50;12.90;;;1.40;99.90;;;;;;6049452;23;20906;-89
2021/01/29 12:45:54;;;;;;;14.90;13.40;;;1.30;99.90;;;;;;6048155;23;20453;-89
2021/01/29 12:48:39;;;;;;;14.00;12.70;;;1.40;99.90;;;;;;6048916;23;20183;-90
2021/01/29 12:51:11;;;;;;;14.47;13.17;;;1.40;99.90;;;;;;6047897;23;20442;-89
2021/01/29 12:53:51;;;;;;;13.10;11.90;;;1.40;99.90;;;;;;6048960;23;20415;-89
2021/01/29 12:56:44;;;;;;;12.03;10.83;;;1.30;99.90;;;;;;6047935;23;20816;-89
2021/01/29 12:59:14;;;;;;;12.97;11.77;;;1.30;99.90;;;;;;6068374;23;20443;-89
2021/01/29 13:02:20;;;;;;;12.33;11.17;;;1.20;99.90;;;;;;6140814;23;20507;-89
2021/01/29 13:04:53;;;;;;;11.10;10.00;;;1.20;99.90;;;;;;6160816;23;20416;-89
2021/01/29 13:07:51;;;;;;;11.70;10.70;;;1.20;99.90;;;;;;6160648;23;20425;-89
2021/01/29 13:10:27;;;;;;;10.13;9.13;;;1.20;99.90;;;;;;6159876;23;20769;-89
2021/01/29 13:13:04;;;;;;;10.10;9.20;;;1.20;99.90;;;;;;6159754;23;20417;-90
2021/01/29 13:15:50;;;;;;;10.63;9.60;;;1.10;99.90;;;;;;6161382;23;20411;-90
2021/01/29 13:18:23;;;;;;;12.37;11.30;;;1.10;99.90;;;;;;6160893;23;20420;-90
2021/01/29 13:20:56;;;;;;;9.67;8.77;;;1.20;99.90;;;;;;6160304;23;20455;-90
2021/01/29 13:23:38;;;;;;;11.00;10.10;;;1.10;99.90;;;;;;6160435;23;20476;-90
2021/01/29 13:26:08;;;;;;;10.37;9.47;;;1.10;99.90;;;;;;6160732;23;20408;-90
2021/01/29 13:28:37;;;;;;;10.73;9.73;;;1.10;99.90;;;;;;6161952;23;21028;-90
2021/01/29 13:31:17;;;;;;;9.77;8.80;;;1.10;99.90;;;;;;6162742;23;20491;-90
2021/01/29 13:33:53;;;;;;;10.33;9.33;;;1.00;99.90;;;;;;6167857;23;20418;-91
2021/01/29 13:36:28;;;;;;;9.60;8.77;;;1.00;99.90;;;;;;6159748;23;20417;-91
2021/01/29 13:39:11;;;;;;;8.20;7.40;;;1.00;99.90;;;;;;6159620;23;20489;-93
2021/01/29 13:41:48;;;;;;;9.33;8.43;;;1.00;99.90;;;;;;6160053;23;21003;-91
2021/01/29 13:44:37;;;;;;;9.20;8.40;;;1.00;99.90;;;;;;6159745;23;20475;-91
2021/01/29 13:47:18;;;;;;;9.20;8.37;;;1.00;99.90;;;;;;6160376;23;20417;-91
2021/01/29 13:49:49;;;;;;;8.87;8.03;;;1.00;99.90;;;;;;6159856;23;20825;-91
2021/01/29 13:52:26;;;;;;;9.63;8.67;;;0.90;99.90;;;;;;6160487;23;20436;-91
2021/01/29 13:54:57;;;;;;;8.70;7.90;;;0.90;99.90;;;;;;6160042;23;20413;-91
2021/01/29 13:57:34;;;;;;;8.80;7.90;;;1.00;99.90;;;;;;6160488;23;20525;-91
2021/01/29 14:00:09;;;;;;;10.43;9.47;;;0.90;99.90;;;;;;6159982;23;20936;-91
2021/01/29 14:03:27;;;;;;;10.40;9.50;;;0.90;99.90;;;;;;6159867;23;20416;-91
2021/01/29 14:05:55;;;;;;;8.30;7.50;;;0.90;99.90;;;;;;6159754;23;20472;-90
2021/01/29 14:08:23;;;;;;;8.60;7.80;;;0.90;99.90;;;;;;6159817;23;20489;-91
2021/01/29 14:11:04;;;;;;;8.57;7.77;;;0.90;99.90;;;;;;6160157;23;20467;-91
2021/01/29 14:13:46;;;;;;;10.00;9.10;;;0.90;99.90;;;;;;6160403;23;20472;-91
2021/01/29 14:16:22;;;;;;;8.70;7.90;;;0.80;99.90;;;;;;6159963;23;20420;-91
2021/01/29 14:19:10;;;;;;;9.80;8.87;;;0.80;99.90;;;;;;6159726;23;20435;-91
2021/01/29 14:21:45;;;;;;;9.40;8.40;;;0.90;99.90;;;;;;6159468;23;20440;-92
2021/01/29 14:24:23;;;;;;;9.63;8.83;;;0.90;99.90;;;;;;6160520;23;20404;-91
2021/01/29 14:27:05;;;;;;;9.40;8.57;;;0.90;99.90;;;;;;6159730;23;20416;-91
2021/01/29 14:29:42;;;;;;;9.80;8.90;;;0.90;99.90;;;;;;6159861;23;20447;-91
2021/01/29 14:32:22;;;;;;;11.93;10.83;;;0.90;99.90;;;;;;6160434;23;20419;-91
2021/01/29 14:35:01;;;;;;;11.77;10.77;;;0.90;99.90;;;;;;6160262;23;20417;-92
2021/01/29 14:37:46;;;;;;;11.13;10.13;;;0.90;99.90;;;;;;6160602;23;20416;-91
2021/01/29 14:40:33;;;;;;;11.37;10.47;;;0.90;99.90;;;;;;6159545;23;20440;-92
2021/01/29 14:43:28;;;;;;;9.20;8.30;;;0.90;99.90;;;;;;6160733;23;20413;-92
2021/01/29 14:45:59;;;;;;;9.10;8.30;;;0.90;99.90;;;;;;6158648;23;20416;-91
2021/01/29 14:48:53;;;;;;;10.60;9.70;;;0.90;99.90;;;;;;6159708;23;20458;-91
2021/01/29 14:51:29;;;;;;;8.77;8.07;;;0.90;99.90;;;;;;6160479;23;20796;-92
2021/01/29 14:54:47;;;;;;;8.90;8.10;;;1.00;99.90;;;;;;6160184;23;20416;-91
2021/01/29 14:57:19;;;;;;;9.43;8.63;;;0.90;99.90;;;;;;6160522;23;20409;-92
2021/01/29 14:59:50;;;;;;;10.93;10.07;;;0.90;99.90;;;;;;6161447;23;20444;-92
2021/01/29 15:02:22;;;;;;;10.27;9.30;;;0.90;99.90;;;;;;6163575;23;20432;-92
2021/01/29 15:04:58;;;;;;;11.07;10.17;;;0.80;99.90;;;;;;6163369;23;20491;-95
2021/01/29 15:07:34;;;;;;;9.60;8.70;;;0.90;99.90;;;;;;6164081;23;20443;-92
2021/01/29 15:10:07;;;;;;;9.43;8.53;;;0.90;99.90;;;;;;6161233;23;20440;-92
2021/01/29 15:12:41;;;;;;;8.60;7.90;;;0.80;99.90;;;;;;6162808;23;20416;-92
2021/01/29 15:15:50;;;;;;;9.73;8.93;;;0.80;99.90;;;;;;6164863;23;20404;-92
2021/01/29 15:18:40;;;;;;;10.50;9.60;;;0.80;99.90;;;;;;6121444;23;20934;-93
2021/01/29 15:21:37;;;;;;;9.20;8.40;;;0.80;99.90;;;;;;6161202;23;20439;-92
2021/01/29 15:24:06;;;;;;;9.70;8.80;;;0.80;99.90;;;;;;6160863;23;20408;-92
2021/01/29 15:26:52;;;;;;;10.50;9.60;;;0.80;99.90;;;;;;6160339;23;20772;-92
2021/01/29 15:29:21;;;;;;;8.20;7.40;;;0.80;99.90;;;;;;6162188;23;20444;-91
2021/01/29 15:31:53;;;;;;;9.40;8.60;;;0.80;99.90;;;;;;6159861;23;20409;-91
2021/01/29 15:34:53;;;;;;;8.40;7.60;;;0.80;99.90;;;;;;6160742;23;20508;-92
2021/01/29 15:37:50;;;;;;;8.70;7.97;;;0.80;99.90;;;;;;6161357;23;20797;-91
2021/01/29 15:40:23;;;;;;;6.60;6.00;;;0.70;99.90;;;;;;6158889;23;20817;-91
2021/01/29 15:42:51;;;;;;;7.73;7.00;;;0.70;99.90;;;;;;6134801;23;20415;-91
2021/01/29 15:45:50;;;;;;;7.17;6.57;;;0.70;99.90;;;;;;6134526;23;20460;-91
2021/01/29 15:48:18;;;;;;;7.33;6.63;;;0.70;99.90;;;;;;6135657;23;20415;-91
2021/01/29 15:51:01;;;;;;;7.00;6.30;;;0.70;99.90;;;;;;6134134;23;20440;-91
2021/01/29 15:53:52;;;;;;;7.57;6.87;;;0.80;99.90;;;;;;6134830;23;20415;-91
2021/01/29 15:56:35;;;;;;;6.63;6.13;;;0.70;99.90;;;;;;6134063;23;20474;-91
2021/01/29 15:59:11;;;;;;;6.97;6.27;;;0.70;99.90;;;;;;6134569;23;20490;-90
2021/01/29 16:01:43;;;;;;;6.97;6.37;;;0.60;99.90;;;;;;6134466;23;20808;-91
2021/01/29 16:04:35;;;;;;;6.90;6.40;;;0.70;99.90;;;;;;6134050;23;20417;-90
2021/01/29 16:07:24;;;;;;;7.83;7.13;;;0.70;99.90;;;;;;6134979;23;20788;-90
2021/01/29 16:10:08;;;;;;;7.13;6.50;;;0.70;99.90;;;;;;6137143;23;20490;-90
2021/01/29 16:12:42;;;;;;;7.40;6.80;;;0.70;99.90;;;;;;6137575;23;20459;-91
2021/01/29 16:15:17;;;;;;;6.37;5.87;;;0.70;99.90;;;;;;6136048;23;20423;-90
2021/01/29 16:17:50;;;;;;;7.93;7.07;;;0.70;99.90;;;;;;6135082;23;20408;-91
2021/01/29 16:20:21;;;;;;;6.50;6.00;;;0.60;99.90;;;;;;6135372;23;20440;-91
2021/01/29 16:22:56;;;;;;;6.50;5.97;;;0.60;99.90;;;;;;6135799;23;20412;-91
2021/01/29 16:25:23;;;;;;;7.90;7.20;;;0.60;99.90;;;;;;6136787;23;20747;-91
2021/01/29 16:27:51;;;;;;;7.33;6.70;;;0.60;99.90;;;;;;6134551;23;20754;-91
2021/01/29 16:30:25;;;;;;;6.00;5.43;;;0.70;99.90;;;;;;6135217;23;20447;-91
2021/01/29 16:32:59;;;;;;;6.90;6.30;;;0.70;99.90;;;;;;6134666;23;20408;-92
2021/01/29 16:35:33;;;;;;;6.23;5.63;;;0.60;99.90;;;;;;6135340;23;20411;-91
2021/01/29 16:38:01;;;;;;;6.60;5.90;;;0.70;99.90;;;;;;6134884;23;20455;-91
2021/01/29 16:40:35;;;;;;;6.70;6.20;;;0.60;99.90;;;;;;6134770;23;20440;-91
2021/01/29 16:43:05;;;;;;;7.53;6.83;;;0.60;99.90;;;;;;6135359;23;20408;-91
2021/01/29 16:45:39;;;;;;;6.43;5.80;;;0.70;99.90;;;;;;6134812;23;20440;-91
2021/01/29 16:48:10;;;;;;;7.03;6.43;;;0.70;99.90;;;;;;6135155;23;20424;-92
2021/01/29 16:50:44;;;;;;;7.93;7.13;;;0.70;99.90;;;;;;6135288;23;20522;-91
2021/01/29 16:53:19;;;;;;;6.50;5.90;;;0.70;99.90;;;;;;6135344;23;20416;-91
2021/01/29 16:55:47;;;;;;;8.10;7.43;;;0.60;99.90;;;;;;6135818;23;20419;-92
2021/01/29 16:58:24;;;;;;;5.80;5.30;;;0.60;99.90;;;;;;6135376;23;20493;-91
2021/01/29 17:00:59;;;;;;;6.27;5.73;;;0.60;99.90;;;;;;6134976;23;20439;-92
2021/01/29 17:03:33;;;;;;;7.80;7.10;;;0.60;99.90;;;;;;6135227;23;20412;-91
2021/01/29 17:06:22;;;;;;;6.43;5.93;;;0.60;99.90;;;;;;6135208;23;20412;-91
2021/01/29 17:08:50;;;;;;;7.67;7.07;;;0.60;99.90;;;;;;6134241;23;20444;-91
2021/01/29 17:11:31;;;;;;;7.87;7.10;;;0.60;99.90;;;;;;6134786;23;20412;-91
2021/01/29 17:14:03;;;;;;;7.87;7.07;;;0.60;99.90;;;;;;6135071;23;20414;-91
2021/01/29 17:16:32;;;;;;;8.73;7.93;;;0.60;99.90;;;;;;6134861;23;20412;-91
2021/01/29 17:19:07;;;;;;;8.23;7.50;;;0.50;99.90;;;;;;6137392;23;20471;-88
2021/01/29 17:21:37;;;;;;;8.57;7.77;;;0.60;99.90;;;;;;6140498;23;20432;-88
2021/01/29 17:24:08;;;;;;;7.10;6.60;;;0.60;99.90;;;;;;6141734;23;20455;-88
2021/01/29 17:26:42;;;;;;;7.90;7.20;;;0.60;99.90;;;;;;6141053;23;20412;-88
2021/01/29 17:29:14;;;;;;;6.50;6.00;;;0.60;99.90;;;;;;6141663;23;20436;-88
2021/01/29 17:31:42;;;;;;;6.77;6.03;;;0.60;99.90;;;;;;6141768;23;20416;-88
2021/01/29 17:34:22;;;;;;;7.40;6.80;;;0.50;99.90;;;;;;6142451;23;20496;-88
2021/01/29 17:36:55;;;;;;;6.00;5.50;;;0.60;99.90;;;;;;6152661;23;20412;-88
2021/01/29 17:39:32;;;;;;;12.83;11.50;;;0.50;99.90;;;;;;6141469;23;20436;-88
2021/01/29 17:42:32;;;;;;;13.00;10.90;;;0.50;99.90;;;;;;6158672;23;20452;-88
2021/01/29 17:45:04;;;;;;;9.13;7.80;;;0.50;99.90;;;;;;6142324;23;20420;-88
2021/01/29 17:47:34;;;;;;;7.93;7.33;;;0.50;99.90;;;;;;6164693;23;20935;-88
2021/01/29 17:50:28;;;;;;;8.57;7.87;;;0.50;99.90;;;;;;6164519;23;20439;-88
2021/01/29 17:52:59;;;;;;;8.17;7.47;;;0.50;99.90;;;;;;6164366;23;20424;-88
2021/01/29 17:55:34;;;;;;;8.80;8.10;;;0.50;99.90;;;;;;6163979;23;20499;-88
2021/01/29 17:58:24;;;;;;;9.70;8.87;;;0.40;99.90;;;;;;6163793;23;20416;-88
2021/01/29 18:01:09;;;;;;;12.13;11.17;;;0.40;99.90;;;;;;6163442;23;20443;-89
2021/01/29 18:03:57;;;;;;;9.33;8.53;;;0.40;99.90;;;;;;6163051;23;20411;-88
2021/01/29 18:06:31;;;;;;;10.67;9.77;;;0.40;99.90;;;;;;6162830;23;20420;-89
2021/01/29 18:09:12;;;;;;;10.10;9.10;;;0.30;99.90;;;;;;6163550;23;20440;-88
2021/01/29 18:12:03;;;;;;;9.50;8.60;;;0.30;99.90;;;;;;6163777;23;20428;-88
2021/01/29 18:14:35;;;;;;;11.63;10.63;;;0.30;99.90;;;;;;6163942;23;20408;-88
2021/01/29 18:17:08;;;;;;;11.90;10.90;;;0.30;99.90;;;;;;6164299;23;20880;-88
2021/01/29 18:19:42;;;;;;;11.57;10.57;;;0.30;99.90;;;;;;6163390;23;20439;-89
2021/01/29 18:22:15;;;;;;;11.30;10.20;;;0.30;99.90;;;;;;6164355;23;20436;-88
2021/01/29 18:24:43;;;;;;;12.27;11.27;;;0.20;99.90;;;;;;6163154;23;20439;-89
2021/01/29 18:27:10;;;;;;;10.93;9.93;;;0.20;99.90;;;;;;6161833;23;20425;-89
2021/01/29 18:29:42;;;;;;;13.63;12.23;;;0.20;99.90;;;;;;6161857;23;20441;-89
2021/01/29 18:32:27;;;;;;;9.87;8.90;;;0.20;99.90;;;;;;6162258;23;20436;-89
2021/01/29 18:34:54;;;;;;;10.10;9.20;;;0.20;99.90;;;;;;6161155;23;20503;-90
2021/01/29 18:37:22;;;;;;;10.00;8.90;;;0.10;99.90;;;;;;6160355;23;20442;-90
2021/01/29 18:39:50;;;;;;;13.30;12.20;;;0.10;99.90;;;;;;6159872;23;20437;-91
2021/01/29 18:42:19;;;;;;;9.87;8.97;;;0.20;99.90;;;;;;6159853;23;20491;-89
2021/01/29 18:44:47;;;;;;;10.73;9.73;;;0.20;99.90;;;;;;6160002;23;20776;-90
2021/01/29 18:47:14;;;;;;;10.80;9.70;;;0.10;99.90;;;;;;6160107;23;20766;-90
2021/01/29 18:49:43;;;;;;;10.90;9.83;;;0.10;99.90;;;;;;6159986;23;20542;-90
2021/01/29 18:52:11;;;;;;;12.23;11.13;;;0.10;99.90;;;;;;6161274;23;20470;-90
2021/01/29 18:54:39;;;;;;;13.77;12.40;;;0.10;99.90;;;;;;6163898;23;20420;-90
2021/01/29 18:57:07;;;;;;;10.77;9.87;;;0.10;99.90;;;;;;6163500;23;20425;-90
2021/01/29 18:59:34;;;;;;;13.40;12.20;;;0.20;99.90;;;;;;6158845;23;20447;-90
2021/01/29 19:02:03;;;;;;;14.67;13.33;;;0.10;99.90;;;;;;6159517;23;20436;-90
2021/01/29 19:04:31;;;;;;;12.20;11.10;;;0.10;99.90;;;;;;6158878;23;20412;-90
2021/01/29 19:07:05;;;;;;;12.73;11.53;;;0.10;99.90;;;;;;6159435;23;20425;-90
2021/01/29 19:09:32;;;;;;;12.67;11.47;;;0.10;99.90;;;;;;6159207;23;20911;-90
2021/01/29 19:12:00;;;;;;;12.03;10.87;;;0.10;99.90;;;;;;6159491;23;20419;-90
2021/01/29 19:14:28;;;;;;;16.10;12.03;;;0.10;99.90;;;;;;6181620;23;20411;-91
2021/01/29 19:16:55;;;;;;;13.30;12.10;;;0.10;99.90;;;;;;6183209;23;20384;-92
2021/01/29 19:19:22;;;;;;;13.47;11.20;;;0.10;99.90;;;;;;6183367;23;20440;-92
2021/01/29 19:21:50;;;;;;;12.10;10.93;;;0.10;99.90;;;;;;6183311;23;20468;-91
2021/01/29 19:24:18;;;;;;;12.87;10.63;;;0.20;99.90;;;;;;6183525;23;20409;-91
2021/01/29 19:26:45;;;;;;;12.33;11.13;;;0.10;99.90;;;;;;6183356;23;20428;-92
2021/01/29 19:29:13;;;;;;;13.20;12.00;;;0.00;99.90;;;;;;6183288;23;20427;-90
2021/01/29 19:31:43;;;;;;;13.53;12.33;;;0.00;99.90;;;;;;6194047;23;20377;-92
2021/01/29 19:34:11;;;;;;;12.40;11.20;;;0.00;99.90;;;;;;6183705;23;20420;-92
2021/01/29 19:36:39;;;;;;;13.07;11.77;;;0.00;99.90;;;;;;6174384;23;20475;-92
2021/01/29 19:39:11;;;;;;;15.67;14.27;;;0.00;99.90;;;;;;6168017;23;20474;-90
2021/01/29 19:41:40;;;;;;;18.43;16.63;;;0.00;99.90;;;;;;6158245;23;20822;-91
2021/01/29 19:44:08;;;;;;;11.50;10.40;;;0.00;99.90;;;;;;6161003;23;20448;-90
2021/01/29 19:46:35;;;;;;;14.07;12.73;;;0.00;99.90;;;;;;6160742;23;20416;-90
2021/01/29 19:49:04;;;;;;;13.53;12.23;;;0.00;99.90;;;;;;6160582;23;20960;-90
2021/01/29 19:51:31;;;;;;;13.20;12.10;;;0.10;99.90;;;;;;6160231;23;20420;-90
2021/01/29 19:58:14;;;;;;;10.77;9.80;;;0.00;99.90;;;;;;6171354;23;20460;-90
2021/01/29 20:00:41;;;;;;;9.37;8.47;;;0.00;99.90;;;;;;6160361;23;20440;-90
2021/01/29 20:03:09;;;;;;;9.27;8.33;;;0.00;99.90;;;;;;6160574;23;20468;-90
2021/01/29 20:05:37;;;;;;;10.70;9.70;;;0.10;99.90;;;;;;6161241;23;20471;-90
2021/01/29 20:08:06;;;;;;;9.97;9.07;;;0.00;99.90;;;;;;6160294;23;20511;-90
2021/01/29 20:10:35;;;;;;;9.90;9.00;;;0.00;99.90;;;;;;6161030;23;20440;-90
2021/01/29 20:13:05;;;;;;;8.17;7.33;;;0.00;99.90;;;;;;6160874;23;20451;-90
2021/01/29 20:15:40;;;;;;;8.53;7.73;;;0.00;99.90;;;;;;6161145;23;20416;-90
2021/01/29 20:18:10;;;;;;;10.03;9.03;;;0.00;99.90;;;;;;6161014;23;20500;-90
2021/01/29 20:20:40;;;;;;;9.50;8.60;;;0.00;99.90;;;;;;6166799;23;20444;-90
2021/01/29 20:23:10;;;;;;;10.53;9.50;;;0.00;99.90;;;;;;6170091;23;20982;-90
2021/01/29 20:25:37;;;;;;;11.77;10.27;;;0.00;99.90;;;;;;6160524;23;20416;-90
2021/01/29 20:28:09;;;;;;;9.70;8.87;;;0.00;99.90;;;;;;6159713;23;20412;-90
2021/01/29 20:30:38;;;;;;;10.47;8.40;;;0.00;99.90;;;;;;6159398;23;20436;-92
2021/01/29 20:33:08;;;;;;;10.80;9.80;;;0.00;99.90;;;;;;6159629;23;20444;-90
2021/01/29 20:35:35;;;;;;;8.40;7.20;;;0.00;99.90;;;;;;6161331;23;20448;-90
2021/01/29 20:38:06;;;;;;;9.40;8.50;;;0.00;99.90;;;;;;6160034;23;20455;-90
2021/01/29 20:40:34;;;;;;;9.37;7.40;;;0.00;99.90;;;;;;6161026;23;20810;-90
2021/01/29 20:43:08;;;;;;;10.50;9.40;;;0.00;99.90;;;;;;6135810;23;20459;-90
2021/01/29 20:45:45;;;;;;;8.30;7.23;;;0.00;99.90;;;;;;6136437;23;20416;-90
2021/01/29 20:48:12;;;;;;;7.67;6.70;;;0.00;99.90;;;;;;6135454;23;20440;-90
2021/01/29 20:50:46;;;;;;;7.97;7.23;;;0.00;99.90;;;;;;6134292;23;20495;-92
2021/01/29 20:53:13;;;;;;;8.47;7.03;;;0.00;99.90;;;;;;6135254;23;20405;-90
2021/01/29 20:55:41;;;;;;;8.52;7.72;;;-0.10;99.90;;;;;;6132618;23;20475;-91
2021/01/29 20:58:11;;;;;;;8.03;7.33;;;0.10;99.90;;;;;;6133471;23;20177;-91
2021/01/29 21:00:39;;;;;;;9.30;8.40;;;0.10;99.90;;;;;;6134726;23;20443;-91
2021/01/29 21:03:12;;;;;;;6.80;6.20;;;0.10;99.90;;;;;;6134588;23;20435;-91
2021/01/29 21:05:40;;;;;;;7.20;6.20;;;0.00;99.90;;;;;;6143801;23;20420;-93
2021/01/29 21:08:09;;;;;;;6.73;6.13;;;-0.10;99.90;;;;;;6150143;23;20447;-93
2021/01/29 21:10:39;;;;;;;5.60;5.10;;;-0.10;99.90;;;;;;6144190;23;21011;-93
2021/01/29 21:13:09;;;;;;;7.47;5.50;;;-0.10;99.90;;;;;;6143813;23;20408;-92
2021/01/29 21:15:38;;;;;;;7.23;5.83;;;-0.20;99.90;;;;;;6152956;23;20404;-91
2021/01/29 21:18:07;;;;;;;7.80;7.10;;;-0.20;99.90;;;;;;6149543;23;20471;-93
2021/01/29 21:20:36;;;;;;;6.87;6.30;;;-0.20;99.90;;;;;;6147304;23;20527;-93
2021/01/29 21:23:05;;;;;;;7.00;6.40;;;-0.20;99.90;;;;;;6145287;23;20449;-93
2021/01/29 21:25:32;;;;;;;6.10;5.50;;;-0.20;99.90;;;;;;6141328;23;20413;-93
2021/01/29 21:28:00;;;;;;;7.70;7.00;;;-0.20;99.90;;;;;;6141213;23;20784;-92